Chicago Rockford International Airport
KRFD : now visible

Airfield :











YOU CAN JOIN US ON...

 
LOGIN :

Register | Disclaimer

   EN    FR    IT 

 









Legend :    VFR   Marginal VFR   IFR   Intensive IFR   Very Intensive IFR
Visi :
Ceiling :
>= 8 km
>= 3000ft
5 to 8 km
1000 to 3000 ft
1500m to 5 km
500 to 1000 ft
800 to 1500m
200 to 500 ft
< 800m
< 200 ft
Symbols :   Thunderstorms  Fog  Heavy snow  Heavy precipitations  Wind > 20 kt






- Airport Elevation : 742 ft
- IATA code : RFD


KRFD - Chicago Rockford International

CURRENT METAR :
  • 081854Z 20011KT 10SM SCT042 31/20 A3008 RMK AO2 SLP182 T03060200

EXPIRED METARs :
  • 081754Z 17014G17KT 10SM FEW040 30/20 A3008 RMK AO2 SLP182 T03000200 10300 20194 58013
  • 081654Z 19009KT 10SM FEW250 28/19 A3009 RMK AO2 SLP186 T02830194

TAF KRFD
Valid from the 08 at 18:00 until the 09 at 18:00 UTC


081738Z 0818/0918 20012G18KT P6SM SCT050
FM090100 19007KT P6SM SCT050
FM091700 19010G15KT P6SM SCT060
KZAU FIR / North America



MET'MAP, your aeronautical weather chart ! - Copyright ORBIFLY December 2007 - Disclaimer

ORBIFLY MET'MAP TEAM :

Programming & Development : Alexandra Zaïnal
Concept & original design : Baudouin d'Aumeries
Assistance for programming : Marc-Olivier Méhu
Technical & hardware support : Manuel Goepfert

Contact : metmap@orbifly.com




SOURCES & CREDITS :

   NOAA       Earth
Advisory